Time;durP1;ratioP1;P1;durP2;ratioP2;P2;SDS_P1;SDS_P2;PMS_P1;PMS_P2;Temp;Humidity;BMP_temperature;BMP_pressure;BME280_temperature;BME280_humidity;BME280_pressure;Samples;Min_cycle;Max_cycle;Signal;HPM_P1;HPM_P2
2023/10/23 00:00:52;;;;;;;37.17;14.85;;;;;;;;;;5096339;28;20367;-71
2023/10/23 00:03:22;;;;;;;36.38;15.93;;;;;;;;;;5098098;28;20027;-71
2023/10/23 00:05:47;;;;;;;31.23;15.20;;;;;;;;;;5087910;28;20023;-71
2023/10/23 00:08:13;;;;;;;29.88;15.45;;;;;;;;;;5097865;28;20028;-71
2023/10/23 00:10:38;;;;;;;30.42;14.45;;;;;;;;;;5096732;28;20083;-75
2023/10/23 00:13:03;;;;;;;31.67;12.50;;;;;;;;;;5092280;28;20027;-72
2023/10/23 00:15:29;;;;;;;28.23;13.90;;;;;;;;;;5095407;28;20035;-76
2023/10/23 00:17:54;;;;;;;35.72;15.05;;;;;;;;;;5084994;28;20446;-74
2023/10/23 00:20:20;;;;;;;32.28;13.27;;;;;;;;;;5096910;28;20084;-72
2023/10/23 00:22:45;;;;;;;30.23;15.85;;;;;;;;;;5099832;28;20032;-71
2023/10/23 00:25:10;;;;;;;25.05;14.57;;;;;;;;;;5098262;28;20035;-71
2023/10/23 00:27:36;;;;;;;28.92;13.23;;;;;;;;;;5097198;28;20036;-71
2023/10/23 00:30:01;;;;;;;25.02;11.57;;;;;;;;;;5096924;28;20051;-72
2023/10/23 00:32:26;;;;;;;26.58;9.35;;;;;;;;;;5099376;28;20024;-72
2023/10/23 00:34:52;;;;;;;20.83;8.73;;;;;;;;;;5097551;28;20074;-76
2023/10/23 00:37:17;;;;;;;27.35;7.68;;;;;;;;;;5098964;28;20459;-73
2023/10/23 00:39:42;;;;;;;15.70;6.32;;;;;;;;;;5097158;28;21046;-72
2023/10/23 00:42:08;;;;;;;19.30;7.60;;;;;;;;;;5099213;28;20020;-76
2023/10/23 00:44:33;;;;;;;25.23;7.80;;;;;;;;;;5095182;28;20447;-73
2023/10/23 00:46:59;;;;;;;21.85;7.22;;;;;;;;;;5095326;28;20065;-75
2023/10/23 00:49:25;;;;;;;21.02;6.63;;;;;;;;;;5094260;28;20244;-72
2023/10/23 00:51:50;;;;;;;20.90;6.68;;;;;;;;;;5096553;28;20042;-73
2023/10/23 00:54:16;;;;;;;19.30;6.65;;;;;;;;;;5097279;28;20034;-72
2023/10/23 00:56:42;;;;;;;16.98;7.18;;;;;;;;;;5094309;28;20020;-78
2023/10/23 00:59:08;;;;;;;16.95;7.90;;;;;;;;;;5084466;28;20347;-74
2023/10/23 01:01:35;;;;;;;20.88;8.57;;;;;;;;;;5092461;28;20027;-72
2023/10/23 01:04:01;;;;;;;22.83;10.57;;;;;;;;;;5096018;28;20031;-75
2023/10/23 01:06:27;;;;;;;22.70;9.80;;;;;;;;;;5095259;28;20040;-71
2023/10/23 01:08:52;;;;;;;21.45;8.23;;;;;;;;;;5096571;28;20039;-73
2023/10/23 01:11:17;;;;;;;18.85;7.75;;;;;;;;;;5093684;28;20028;-72
2023/10/23 01:13:43;;;;;;;21.88;9.13;;;;;;;;;;5094671;28;21157;-75
2023/10/23 01:16:08;;;;;;;21.90;10.23;;;;;;;;;;5090353;28;20365;-73
2023/10/23 01:18:34;;;;;;;22.42;11.07;;;;;;;;;;5082087;28;20063;-72
2023/10/23 01:20:59;;;;;;;31.25;8.93;;;;;;;;;;5093476;28;20055;-72
2023/10/23 01:23:26;;;;;;;18.67;8.25;;;;;;;;;;5096011;28;20036;-74
2023/10/23 01:25:52;;;;;;;20.33;8.88;;;;;;;;;;5094126;28;20032;-78
2023/10/23 01:28:17;;;;;;;20.90;9.23;;;;;;;;;;5090906;28;20323;-73
2023/10/23 01:30:43;;;;;;;19.20;8.32;;;;;;;;;;5090187;28;20328;-76
2023/10/23 01:33:08;;;;;;;23.60;8.35;;;;;;;;;;5090614;28;20062;-73
2023/10/23 01:35:33;;;;;;;26.92;12.20;;;;;;;;;;5095900;28;20054;-72
2023/10/23 01:37:59;;;;;;;30.60;11.60;;;;;;;;;;5096235;28;20688;-72
2023/10/23 01:40:24;;;;;;;24.02;11.70;;;;;;;;;;5097536;28;20016;-73
2023/10/23 01:42:49;;;;;;;25.95;10.57;;;;;;;;;;5094731;28;20028;-72
2023/10/23 01:45:15;;;;;;;29.85;11.15;;;;;;;;;;5084468;28;20427;-72
2023/10/23 01:47:41;;;;;;;24.75;9.63;;;;;;;;;;5093841;28;20073;-78
2023/10/23 01:50:06;;;;;;;21.35;8.80;;;;;;;;;;5097754;28;20118;-74
2023/10/23 01:52:32;;;;;;;26.67;8.20;;;;;;;;;;5098308;28;20031;-74
2023/10/23 01:54:58;;;;;;;20.88;7.60;;;;;;;;;;5095385;28;20096;-75
2023/10/23 01:57:24;;;;;;;20.33;8.45;;;;;;;;;;5099850;28;20039;-72
2023/10/23 01:59:49;;;;;;;25.13;8.65;;;;;;;;;;5099831;28;20034;-71
2023/10/23 02:02:14;;;;;;;21.40;8.25;;;;;;;;;;5101901;27;20168;-72
2023/10/23 02:04:40;;;;;;;23.25;9.38;;;;;;;;;;5100246;28;20019;-76
2023/10/23 02:07:06;;;;;;;24.25;9.85;;;;;;;;;;5103089;28;20028;-74
2023/10/23 02:09:32;;;;;;;22.83;9.52;;;;;;;;;;5102683;28;20053;-75
2023/10/23 02:11:57;;;;;;;20.90;8.75;;;;;;;;;;5096412;28;20076;-73
2023/10/23 02:14:22;;;;;;;24.25;9.63;;;;;;;;;;5100191;28;20377;-72
2023/10/23 02:16:48;;;;;;;26.95;14.57;;;;;;;;;;5099625;28;20046;-72
2023/10/23 02:19:13;;;;;;;32.92;17.33;;;;;;;;;;5096341;28;20015;-72
2023/10/23 02:21:38;;;;;;;41.80;21.60;;;;;;;;;;5094264;28;20024;-72
2023/10/23 02:24:04;;;;;;;32.78;16.58;;;;;;;;;;5101109;28;20035;-77
2023/10/23 02:26:29;;;;;;;35.67;19.02;;;;;;;;;;5102012;28;20024;-72
2023/10/23 02:28:55;;;;;;;34.28;18.15;;;;;;;;;;5100947;28;20024;-77
2023/10/23 02:31:20;;;;;;;33.17;20.52;;;;;;;;;;5098589;28;20028;-72
2023/10/23 02:33:46;;;;;;;28.90;15.82;;;;;;;;;;5099083;28;20080;-76
2023/10/23 02:36:11;;;;;;;26.30;12.80;;;;;;;;;;5100212;28;20048;-72
2023/10/23 02:38:37;;;;;;;24.52;13.13;;;;;;;;;;5089291;28;20038;-71
2023/10/23 02:41:02;;;;;;;29.15;14.23;;;;;;;;;;5098562;28;20126;-71
2023/10/23 02:43:27;;;;;;;23.63;12.05;;;;;;;;;;5089391;28;20028;-72
2023/10/23 02:45:53;;;;;;;27.52;14.75;;;;;;;;;;5090554;28;20397;-74
2023/10/23 02:48:18;;;;;;;23.65;13.77;;;;;;;;;;5089323;28;20035;-74
2023/10/23 02:50:53;;;;;;;19.85;12.48;;;;;;;;;;5099212;28;20031;-73
2023/10/23 02:53:18;;;;;;;23.73;11.73;;;;;;;;;;5098229;28;20103;-71
2023/10/23 02:55:44;;;;;;;24.20;12.32;;;;;;;;;;5098601;28;20502;-73
2023/10/23 02:58:09;;;;;;;20.40;9.25;;;;;;;;;;5100142;28;20034;-71
2023/10/23 03:00:34;;;;;;;19.58;9.75;;;;;;;;;;5098313;28;20272;-71
2023/10/23 03:03:00;;;;;;;21.95;10.40;;;;;;;;;;5100062;28;20024;-75
2023/10/23 03:05:25;;;;;;;17.35;8.40;;;;;;;;;;5098801;28;20092;-74
2023/10/23 03:07:51;;;;;;;16.17;7.05;;;;;;;;;;5098365;28;20039;-76
2023/10/23 03:10:16;;;;;;;12.93;7.00;;;;;;;;;;5098990;28;20023;-73
2023/10/23 03:12:41;;;;;;;15.85;7.18;;;;;;;;;;5098450;28;20027;-73
2023/10/23 03:15:07;;;;;;;16.92;7.38;;;;;;;;;;5101107;28;20439;-71
2023/10/23 03:17:33;;;;;;;15.48;6.55;;;;;;;;;;5098215;28;20027;-72
2023/10/23 03:19:58;;;;;;;17.92;5.88;;;;;;;;;;5097344;28;20323;-72
2023/10/23 03:22:23;;;;;;;15.55;6.15;;;;;;;;;;5100286;28;20027;-72
2023/10/23 03:24:49;;;;;;;14.00;6.38;;;;;;;;;;5091849;28;20028;-77
2023/10/23 03:27:14;;;;;;;14.50;7.10;;;;;;;;;;5093682;28;20084;-73
2023/10/23 03:29:42;;;;;;;15.25;6.47;;;;;;;;;;5098219;28;20110;-74
2023/10/23 03:32:07;;;;;;;16.42;6.95;;;;;;;;;;5098416;28;20096;-72
2023/10/23 03:34:32;;;;;;;17.55;7.22;;;;;;;;;;5094939;28;20443;-72
2023/10/23 03:36:58;;;;;;;14.15;6.10;;;;;;;;;;5096747;28;20374;-72
2023/10/23 03:39:23;;;;;;;17.55;7.13;;;;;;;;;;5094301;28;20028;-74
2023/10/23 03:41:48;;;;;;;18.55;8.80;;;;;;;;;;5090488;28;20328;-72
2023/10/23 03:44:14;;;;;;;17.23;8.35;;;;;;;;;;5091747;28;20031;-77
2023/10/23 03:46:39;;;;;;;18.15;7.82;;;;;;;;;;5093988;28;20054;-74
2023/10/23 03:49:04;;;;;;;22.60;9.82;;;;;;;;;;5096065;28;20024;-72
2023/10/23 03:51:30;;;;;;;28.00;17.60;;;;;;;;;;5096691;28;21093;-72
2023/10/23 03:53:55;;;;;;;18.58;8.82;;;;;;;;;;5095558;28;20638;-74
2023/10/23 03:56:20;;;;;;;19.13;8.48;;;;;;;;;;5096244;28;20481;-71
2023/10/23 03:58:46;;;;;;;16.98;8.95;;;;;;;;;;5092830;28;20039;-72
2023/10/23 04:01:11;;;;;;;18.80;9.65;;;;;;;;;;5090975;28;20387;-72
2023/10/23 04:03:37;;;;;;;20.98;9.43;;;;;;;;;;5091511;28;20432;-76
2023/10/23 04:06:03;;;;;;;17.05;8.38;;;;;;;;;;5084837;28;20028;-76
2023/10/23 04:08:28;;;;;;;20.60;10.00;;;;;;;;;;5084015;28;20031;-73
2023/10/23 04:10:53;;;;;;;19.92;8.70;;;;;;;;;;5082526;28;20308;-72
2023/10/23 04:13:19;;;;;;;15.95;7.30;;;;;;;;;;5081163;28;20032;-75
2023/10/23 04:15:54;;;;;;;17.88;6.70;;;;;;;;;;5085162;28;20036;-71
2023/10/23 04:18:19;;;;;;;14.45;7.47;;;;;;;;;;5093866;28;20024;-74
2023/10/23 04:20:44;;;;;;;18.15;7.60;;;;;;;;;;5083795;28;20491;-73
2023/10/23 04:23:10;;;;;;;19.13;7.95;;;;;;;;;;5096305;28;20131;-74
2023/10/23 04:25:35;;;;;;;19.58;9.40;;;;;;;;;;5097175;28;20422;-71
2023/10/23 04:28:00;;;;;;;22.10;10.05;;;;;;;;;;5089718;28;20027;-72
2023/10/23 04:30:26;;;;;;;19.88;10.10;;;;;;;;;;5093868;28;20031;-75
2023/10/23 04:32:51;;;;;;;21.55;10.68;;;;;;;;;;5093561;28;20038;-71
2023/10/23 04:35:17;;;;;;;20.05;11.13;;;;;;;;;;5095231;28;20067;-71
2023/10/23 04:37:43;;;;;;;17.33;9.70;;;;;;;;;;5095970;28;20043;-71
2023/10/23 04:40:09;;;;;;;18.30;8.00;;;;;;;;;;5092547;28;20090;-76
2023/10/23 04:42:34;;;;;;;18.95;7.00;;;;;;;;;;5089552;28;20024;-73
2023/10/23 04:45:00;;;;;;;21.25;7.35;;;;;;;;;;5098212;28;20023;-73
2023/10/23 04:47:25;;;;;;;16.25;7.28;;;;;;;;;;5096991;28;20023;-73
2023/10/23 04:49:51;;;;;;;23.95;8.38;;;;;;;;;;5079723;28;20028;-71
2023/10/23 04:52:18;;;;;;;19.20;8.18;;;;;;;;;;5068845;28;20028;-71
2023/10/23 04:54:43;;;;;;;15.48;7.82;;;;;;;;;;5068771;28;20039;-74
2023/10/23 04:57:09;;;;;;;16.27;8.55;;;;;;;;;;5067380;28;20372;-75
2023/10/23 04:59:35;;;;;;;21.05;8.50;;;;;;;;;;5068981;28;20038;-72
2023/10/23 05:02:00;;;;;;;25.23;7.55;;;;;;;;;;5067294;28;21280;-71
2023/10/23 05:04:28;;;;;;;19.67;7.93;;;;;;;;;;5069599;28;20032;-72
2023/10/23 05:06:55;;;;;;;15.98;6.68;;;;;;;;;;5068279;28;20040;-73
2023/10/23 05:09:20;;;;;;;17.92;6.72;;;;;;;;;;5075199;28;20036;-72
2023/10/23 05:11:46;;;;;;;23.17;7.57;;;;;;;;;;5078191;28;20037;-71
2023/10/23 05:14:12;;;;;;;20.75;9.02;;;;;;;;;;5076719;28;20028;-72
2023/10/23 05:16:37;;;;;;;32.30;13.50;;;;;;;;;;5070654;28;20017;-71
2023/10/23 05:19:03;;;;;;;31.40;16.58;;;;;;;;;;5078056;28;20402;-76
2023/10/23 05:21:28;;;;;;;37.33;14.52;;;;;;;;;;5081863;28;20028;-72
2023/10/23 05:23:53;;;;;;;30.00;14.25;;;;;;;;;;5080320;28;20027;-76
2023/10/23 05:26:20;;;;;;;30.33;15.25;;;;;;;;;;5078569;28;20514;-72
2023/10/23 05:28:45;;;;;;;32.10;14.65;;;;;;;;;;5076149;28;20637;-71
2023/10/23 05:31:10;;;;;;;32.63;17.98;;;;;;;;;;5095371;28;20051;-72
2023/10/23 05:33:36;;;;;;;29.17;13.20;;;;;;;;;;5099486;28;20109;-72
2023/10/23 05:36:03;;;;;;;22.10;10.40;;;;;;;;;;5099917;28;20035;-72
2023/10/23 05:38:28;;;;;;;35.58;19.60;;;;;;;;;;5098901;28;20046;-74
2023/10/23 05:40:57;;;;;;;174.20;102.97;;;;;;;;;;5098328;28;20027;-76
2023/10/23 05:43:23;;;;;;;86.55;52.03;;;;;;;;;;5097664;28;20149;-77
2023/10/23 05:45:49;;;;;;;48.35;30.25;;;;;;;;;;5099508;28;20027;-74
2023/10/23 05:48:14;;;;;;;35.95;21.15;;;;;;;;;;5097569;28;20038;-72
2023/10/23 05:50:39;;;;;;;30.80;17.27;;;;;;;;;;5100563;28;20023;-72
2023/10/23 05:53:05;;;;;;;28.98;13.32;;;;;;;;;;5091692;27;20072;-73
2023/10/23 05:55:33;;;;;;;29.70;16.67;;;;;;;;;;5094508;28;20449;-74
2023/10/23 05:57:58;;;;;;;25.45;15.52;;;;;;;;;;5100129;28;20657;-76
2023/10/23 06:00:24;;;;;;;23.60;14.38;;;;;;;;;;5097350;28;20093;-75
2023/10/23 06:02:49;;;;;;;32.05;13.70;;;;;;;;;;5100239;27;20039;-72
2023/10/23 06:05:14;;;;;;;25.10;12.18;;;;;;;;;;5084530;28;20169;-72
2023/10/23 06:07:41;;;;;;;26.75;11.75;;;;;;;;;;5075281;28;20120;-75
2023/10/23 06:10:06;;;;;;;23.27;10.85;;;;;;;;;;5073796;28;20355;-72
2023/10/23 06:12:32;;;;;;;24.70;10.65;;;;;;;;;;5069523;28;20023;-73
2023/10/23 06:14:58;;;;;;;27.05;10.07;;;;;;;;;;5078677;28;20098;-73
2023/10/23 06:17:24;;;;;;;28.80;10.27;;;;;;;;;;5084440;28;20704;-74
2023/10/23 06:19:49;;;;;;;32.80;15.25;;;;;;;;;;5083291;28;20447;-73
2023/10/23 06:22:15;;;;;;;129.73;87.32;;;;;;;;;;5085473;28;20019;-73
2023/10/23 06:24:40;;;;;;;59.08;38.63;;;;;;;;;;5085221;28;20024;-72
2023/10/23 06:27:05;;;;;;;57.67;35.50;;;;;;;;;;5086182;28;20042;-72
2023/10/23 06:29:31;;;;;;;46.58;27.98;;;;;;;;;;5084016;28;20024;-72
2023/10/23 06:31:57;;;;;;;185.00;107.50;;;;;;;;;;5093265;28;20450;-72
2023/10/23 06:34:22;;;;;;;227.63;127.68;;;;;;;;;;5087314;28;20430;-73
2023/10/23 06:36:47;;;;;;;145.57;85.13;;;;;;;;;;5098298;27;20047;-71
2023/10/23 06:39:13;;;;;;;141.00;83.57;;;;;;;;;;5070822;28;20043;-73
2023/10/23 06:41:38;;;;;;;163.45;103.45;;;;;;;;;;5084215;28;20016;-71
2023/10/23 06:44:03;;;;;;;232.65;124.35;;;;;;;;;;5082751;28;20084;-71
2023/10/23 06:46:29;;;;;;;183.10;94.50;;;;;;;;;;5074958;28;20417;-71
2023/10/23 06:48:54;;;;;;;119.65;65.78;;;;;;;;;;5096509;28;20039;-70
2023/10/23 06:51:19;;;;;;;92.22;48.88;;;;;;;;;;5097677;28;20028;-73
2023/10/23 06:53:45;;;;;;;80.10;42.08;;;;;;;;;;5096465;28;20023;-72
2023/10/23 06:56:10;;;;;;;96.35;43.03;;;;;;;;;;5090061;28;20031;-72
2023/10/23 06:58:35;;;;;;;96.03;47.33;;;;;;;;;;5095698;28;20031;-78
2023/10/23 07:01:04;;;;;;;58.08;31.33;;;;;;;;;;5072783;28;20548;-73
2023/10/23 07:03:29;;;;;;;39.30;21.08;;;;;;;;;;5082698;28;20139;-74
2023/10/23 07:05:55;;;;;;;48.53;26.75;;;;;;;;;;5072317;28;20511;-71
2023/10/23 07:08:20;;;;;;;39.55;20.35;;;;;;;;;;5074555;28;20494;-71
2023/10/23 07:10:45;;;;;;;32.60;19.92;;;;;;;;;;5074663;28;20151;-76
2023/10/23 07:13:11;;;;;;;31.60;15.75;;;;;;;;;;5073822;28;20507;-74
2023/10/23 07:15:38;;;;;;;21.60;10.73;;;;;;;;;;5068391;28;20028;-72
2023/10/23 07:18:04;;;;;;;18.90;9.13;;;;;;;;;;5082067;28;20035;-73
2023/10/23 07:20:30;;;;;;;25.15;9.88;;;;;;;;;;5094981;28;20084;-70
2023/10/23 07:22:55;;;;;;;21.33;9.30;;;;;;;;;;5094816;28;20027;-70
2023/10/23 07:25:20;;;;;;;23.48;11.13;;;;;;;;;;5079631;28;20027;-71
2023/10/23 07:27:46;;;;;;;28.75;12.68;;;;;;;;;;5091910;28;20031;-73
2023/10/23 07:30:13;;;;;;;22.83;9.95;;;;;;;;;;5071539;28;20019;-72
2023/10/23 07:32:39;;;;;;;24.73;8.75;;;;;;;;;;5072821;28;20111;-72
2023/10/23 07:35:04;;;;;;;21.67;8.48;;;;;;;;;;5069434;28;20111;-72
2023/10/23 07:37:30;;;;;;;23.23;7.88;;;;;;;;;;5073335;28;20032;-77
2023/10/23 07:39:56;;;;;;;26.85;12.02;;;;;;;;;;5066818;28;20147;-72
2023/10/23 07:42:21;;;;;;;23.35;9.27;;;;;;;;;;5073889;28;20015;-73
2023/10/23 07:44:47;;;;;;;27.92;9.73;;;;;;;;;;5073071;28;20035;-74
2023/10/23 07:47:13;;;;;;;30.70;10.52;;;;;;;;;;5071608;28;20061;-73
2023/10/23 07:49:38;;;;;;;24.58;10.40;;;;;;;;;;5073441;28;20024;-71
2023/10/23 07:52:04;;;;;;;30.00;10.00;;;;;;;;;;5072207;28;20164;-71
2023/10/23 07:54:31;;;;;;;26.20;9.82;;;;;;;;;;5071650;28;20051;-72
2023/10/23 07:56:56;;;;;;;23.88;8.60;;;;;;;;;;5070501;28;20063;-72
2023/10/23 07:59:23;;;;;;;24.30;9.35;;;;;;;;;;5072823;28;20057;-75
2023/10/23 08:01:49;;;;;;;25.88;11.32;;;;;;;;;;5077337;28;20080;-70
2023/10/23 08:04:14;;;;;;;25.23;13.07;;;;;;;;;;5083445;28;20103;-71
2023/10/23 08:06:40;;;;;;;27.65;14.20;;;;;;;;;;5088957;28;20066;-76
2023/10/23 08:09:06;;;;;;;27.02;12.00;;;;;;;;;;5089002;28;20071;-72
2023/10/23 08:11:31;;;;;;;29.77;13.27;;;;;;;;;;5083727;28;20974;-71
2023/10/23 08:13:58;;;;;;;25.83;13.38;;;;;;;;;;5089153;28;20032;-72
2023/10/23 08:16:23;;;;;;;27.85;13.18;;;;;;;;;;5086361;28;20050;-73
2023/10/23 08:18:48;;;;;;;27.60;14.90;;;;;;;;;;5069210;28;20451;-77
2023/10/23 08:21:15;;;;;;;32.35;15.80;;;;;;;;;;5067867;28;20027;-70
2023/10/23 08:23:41;;;;;;;29.05;15.95;;;;;;;;;;5073112;28;20032;-73
2023/10/23 08:26:06;;;;;;;32.72;20.40;;;;;;;;;;5072470;28;20413;-73
2023/10/23 08:28:32;;;;;;;41.53;29.65;;;;;;;;;;5070749;28;20481;-72
2023/10/23 08:30:57;;;;;;;37.53;24.05;;;;;;;;;;5068144;28;20027;-76
2023/10/23 08:33:22;;;;;;;33.15;20.58;;;;;;;;;;5071257;28;20043;-72
2023/10/23 08:35:48;;;;;;;25.65;13.75;;;;;;;;;;5075226;27;20514;-72
2023/10/23 08:38:13;;;;;;;27.35;11.73;;;;;;;;;;5071874;28;20459;-71
2023/10/23 08:40:39;;;;;;;24.50;10.00;;;;;;;;;;5074120;28;20023;-75
2023/10/23 08:43:05;;;;;;;26.50;11.20;;;;;;;;;;5069533;28;20466;-72
2023/10/23 08:45:30;;;;;;;25.52;11.23;;;;;;;;;;5071158;28;20107;-72
2023/10/23 08:47:57;;;;;;;20.58;9.18;;;;;;;;;;5079600;28;20032;-77
2023/10/23 08:50:23;;;;;;;24.27;9.35;;;;;;;;;;5071354;28;20119;-72
2023/10/23 08:52:59;;;;;;;20.77;8.45;;;;;;;;;;5070862;28;20019;-72
2023/10/23 08:55:30;;;;;;;23.42;8.07;;;;;;;;;;5077357;28;20034;-72
2023/10/23 08:57:57;;;;;;;22.67;9.52;;;;;;;;;;5077819;28;20092;-76
2023/10/23 09:00:23;;;;;;;23.27;7.80;;;;;;;;;;5068016;28;20052;-76
2023/10/23 09:02:51;;;;;;;29.15;8.25;;;;;;;;;;5068458;28;20094;-74
2023/10/23 09:05:17;;;;;;;20.60;7.57;;;;;;;;;;5082362;28;20024;-74
2023/10/23 09:07:43;;;;;;;24.20;6.97;;;;;;;;;;5097468;28;20088;-75
2023/10/23 09:10:08;;;;;;;28.42;8.00;;;;;;;;;;5101330;28;20115;-75
2023/10/23 09:12:35;;;;;;;22.30;7.65;;;;;;;;;;5103433;27;20460;-75
2023/10/23 09:15:12;;;;;;;23.45;7.00;;;;;;;;;;5098118;28;20039;-73
2023/10/23 09:17:38;;;;;;;27.40;7.55;;;;;;;;;;5100242;28;20023;-74
2023/10/23 09:20:15;;;;;;;21.77;7.00;;;;;;;;;;5103183;28;20031;-74
2023/10/23 09:22:41;;;;;;;24.50;7.65;;;;;;;;;;5077786;28;20427;-74
2023/10/23 09:25:09;;;;;;;23.67;7.65;;;;;;;;;;5073845;28;20023;-73
2023/10/23 09:27:35;;;;;;;24.83;8.40;;;;;;;;;;5078635;28;20024;-75
2023/10/23 09:30:02;;;;;;;27.85;8.18;;;;;;;;;;5077682;28;20478;-73
2023/10/23 09:32:27;;;;;;;28.23;8.70;;;;;;;;;;5080441;28;20110;-78
2023/10/23 09:34:53;;;;;;;27.67;8.48;;;;;;;;;;5078398;28;20518;-76
2023/10/23 09:37:19;;;;;;;29.48;8.80;;;;;;;;;;5081805;28;20044;-74
2023/10/23 09:39:44;;;;;;;25.42;7.90;;;;;;;;;;5077214;28;20464;-77
2023/10/23 09:42:11;;;;;;;21.85;7.78;;;;;;;;;;5080777;28;20030;-71
2023/10/23 09:44:38;;;;;;;25.90;7.32;;;;;;;;;;5077526;28;20119;-75
2023/10/23 09:47:05;;;;;;;25.83;8.40;;;;;;;;;;5075043;28;20040;-73
2023/10/23 09:49:32;;;;;;;28.88;8.07;;;;;;;;;;5079576;28;20056;-72
2023/10/23 09:51:59;;;;;;;21.77;7.80;;;;;;;;;;5087632;28;20396;-71
2023/10/23 09:54:24;;;;;;;27.48;8.63;;;;;;;;;;5098743;28;20363;-72
2023/10/23 09:56:51;;;;;;;23.70;8.02;;;;;;;;;;5099459;28;20055;-72
2023/10/23 09:59:18;;;;;;;22.85;7.53;;;;;;;;;;5099904;28;20040;-74
2023/10/23 10:01:47;;;;;;;25.05;7.20;;;;;;;;;;5100936;28;20016;-73
2023/10/23 10:04:14;;;;;;;23.70;6.97;;;;;;;;;;5099395;28;20031;-74
2023/10/23 10:06:46;;;;;;;25.23;7.55;;;;;;;;;;5097999;28;20047;-74
2023/10/23 10:09:12;;;;;;;25.90;7.28;;;;;;;;;;5101215;28;20031;-73
2023/10/23 10:11:42;;;;;;;21.17;6.45;;;;;;;;;;5100295;28;20031;-74
2023/10/23 10:14:08;;;;;;;20.27;7.55;;;;;;;;;;5099908;28;20029;-73
2023/10/23 10:16:34;;;;;;;25.05;7.45;;;;;;;;;;5099247;28;20019;-75
2023/10/23 10:18:59;;;;;;;26.45;7.00;;;;;;;;;;5100527;28;20361;-73
2023/10/23 10:21:27;;;;;;;26.13;6.35;;;;;;;;;;5101943;28;20016;-73
2023/10/23 10:23:53;;;;;;;22.27;6.60;;;;;;;;;;5101782;28;20085;-73
2023/10/23 10:26:18;;;;;;;31.33;7.72;;;;;;;;;;5102414;28;20446;-75
2023/10/23 10:28:50;;;;;;;24.50;7.95;;;;;;;;;;5100341;28;20111;-72
2023/10/23 10:31:16;;;;;;;19.73;7.07;;;;;;;;;;5099594;28;20394;-75
2023/10/23 10:33:41;;;;;;;21.48;6.75;;;;;;;;;;5102913;28;20032;-73
2023/10/23 10:36:07;;;;;;;18.08;6.93;;;;;;;;;;5101411;28;20416;-77
2023/10/23 10:38:33;;;;;;;24.98;6.03;;;;;;;;;;5099274;28;20031;-74
2023/10/23 10:40:59;;;;;;;19.95;6.30;;;;;;;;;;5101446;28;20063;-75
2023/10/23 10:43:25;;;;;;;19.98;7.22;;;;;;;;;;5100947;27;20411;-75
2023/10/23 10:45:50;;;;;;;22.88;6.55;;;;;;;;;;5101805;28;20059;-74
2023/10/23 10:48:16;;;;;;;20.65;6.13;;;;;;;;;;5101741;28;20039;-75
2023/10/23 10:50:41;;;;;;;21.58;5.88;;;;;;;;;;5099560;27;20059;-73
2023/10/23 10:53:07;;;;;;;18.58;6.53;;;;;;;;;;5100201;28;20031;-75
2023/10/23 10:55:34;;;;;;;16.58;5.70;;;;;;;;;;5101198;28;20023;-73
2023/10/23 10:58:00;;;;;;;21.40;6.07;;;;;;;;;;5099958;28;20049;-73
2023/10/23 11:00:29;;;;;;;19.25;6.13;;;;;;;;;;5100856;28;20126;-77
2023/10/23 11:02:55;;;;;;;16.58;4.78;;;;;;;;;;5099925;28;20107;-74
2023/10/23 11:05:20;;;;;;;19.60;5.20;;;;;;;;;;5099620;28;20103;-73
2023/10/23 11:07:46;;;;;;;20.70;5.60;;;;;;;;;;5101185;28;20031;-77
2023/10/23 11:10:12;;;;;;;17.15;5.93;;;;;;;;;;5099488;28;20036;-78
2023/10/23 11:12:38;;;;;;;18.45;5.30;;;;;;;;;;5099556;28;20076;-76
2023/10/23 11:15:04;;;;;;;24.73;6.43;;;;;;;;;;5101458;28;20019;-75
2023/10/23 11:17:30;;;;;;;20.63;5.47;;;;;;;;;;5097363;28;20050;-75
2023/10/23 11:19:55;;;;;;;18.70;5.80;;;;;;;;;;5099671;28;20043;-77
2023/10/23 11:22:24;;;;;;;20.35;5.15;;;;;;;;;;5097705;28;20439;-78
2023/10/23 11:24:49;;;;;;;21.33;5.88;;;;;;;;;;5100441;28;20031;-74
2023/10/23 11:27:14;;;;;;;22.25;6.35;;;;;;;;;;5101429;27;20036;-73
2023/10/23 11:29:41;;;;;;;22.05;6.47;;;;;;;;;;5099955;28;20024;-74
2023/10/23 11:32:06;;;;;;;20.90;6.15;;;;;;;;;;5099630;28;20100;-75
2023/10/23 11:34:32;;;;;;;20.85;5.78;;;;;;;;;;5099551;27;20023;-75
2023/10/23 11:36:59;;;;;;;21.05;6.22;;;;;;;;;;5098901;28;20047;-75
2023/10/23 11:39:25;;;;;;;15.88;5.85;;;;;;;;;;5099416;28;20023;-73
2023/10/23 11:41:57;;;;;;;21.48;6.50;;;;;;;;;;5098025;28;20039;-75
2023/10/23 11:44:26;;;;;;;17.63;6.15;;;;;;;;;;5098402;28;20109;-78
2023/10/23 11:46:54;;;;;;;13.80;4.65;;;;;;;;;;5100809;28;20031;-76
2023/10/23 11:49:20;;;;;;;25.27;7.78;;;;;;;;;;5097765;28;20109;-76
2023/10/23 11:51:46;;;;;;;25.27;7.10;;;;;;;;;;5098294;27;20032;-74
2023/10/23 11:54:11;;;;;;;23.02;6.07;;;;;;;;;;5098835;28;20024;-74
2023/10/23 11:56:36;;;;;;;22.50;6.28;;;;;;;;;;5096756;28;20025;-74
2023/10/23 11:59:03;;;;;;;16.77;5.90;;;;;;;;;;5098329;28;20061;-74
2023/10/23 12:01:29;;;;;;;26.70;6.43;;;;;;;;;;5099423;28;20101;-74
2023/10/23 12:03:54;;;;;;;22.25;5.65;;;;;;;;;;5099170;28;20426;-77
2023/10/23 12:06:20;;;;;;;16.27;5.18;;;;;;;;;;5099954;28;20069;-73
2023/10/23 12:08:45;;;;;;;22.30;6.03;;;;;;;;;;5098920;27;20036;-75
2023/10/23 12:11:10;;;;;;;20.20;5.70;;;;;;;;;;5095204;28;20453;-76
2023/10/23 12:13:36;;;;;;;20.73;6.68;;;;;;;;;;5098641;28;20027;-75
2023/10/23 12:16:01;;;;;;;18.15;5.97;;;;;;;;;;5097654;28;20030;-74
2023/10/23 12:18:28;;;;;;;18.52;5.63;;;;;;;;;;5098998;28;20039;-78
2023/10/23 12:20:53;;;;;;;17.63;5.13;;;;;;;;;;5097644;28;20028;-75
2023/10/23 12:23:18;;;;;;;13.60;5.10;;;;;;;;;;5097827;28;20077;-80
2023/10/23 12:25:44;;;;;;;15.07;4.65;;;;;;;;;;5098614;28;20023;-76
2023/10/23 12:28:09;;;;;;;12.63;4.13;;;;;;;;;;5096252;28;20030;-76
2023/10/23 12:30:34;;;;;;;12.32;3.55;;;;;;;;;;5098963;28;20024;-80
2023/10/23 12:33:02;;;;;;;14.07;4.05;;;;;;;;;;5096358;28;20027;-74
2023/10/23 12:35:28;;;;;;;11.52;4.70;;;;;;;;;;5097875;28;20464;-77
2023/10/23 12:37:53;;;;;;;13.93;3.67;;;;;;;;;;5094823;28;20031;-79
2023/10/23 12:40:18;;;;;;;8.52;3.25;;;;;;;;;;5097159;28;20113;-78
2023/10/23 12:42:44;;;;;;;12.55;3.42;;;;;;;;;;5093312;28;20028;-75
2023/10/23 12:45:09;;;;;;;11.77;3.28;;;;;;;;;;5096390;28;20024;-75
2023/10/23 12:47:35;;;;;;;12.77;3.17;;;;;;;;;;5097224;28;20023;-76
2023/10/23 12:50:00;;;;;;;13.77;4.95;;;;;;;;;;5094890;28;20494;-75
2023/10/23 12:52:26;;;;;;;9.25;3.42;;;;;;;;;;5094802;28;20462;-76
2023/10/23 12:54:51;;;;;;;10.13;3.45;;;;;;;;;;5095741;28;20893;-77
2023/10/23 12:57:16;;;;;;;7.78;3.17;;;;;;;;;;5094657;28;20404;-80
2023/10/23 12:59:42;;;;;;;10.63;3.78;;;;;;;;;;5097515;28;20371;-79
2023/10/23 13:02:07;;;;;;;11.75;3.25;;;;;;;;;;5084520;28;20030;-78
2023/10/23 13:04:32;;;;;;;12.85;3.95;;;;;;;;;;5087459;28;20906;-82
2023/10/23 13:06:58;;;;;;;11.55;4.25;;;;;;;;;;5084754;28;20032;-77
2023/10/23 13:09:23;;;;;;;9.30;3.72;;;;;;;;;;5089149;28;20027;-76
2023/10/23 13:11:49;;;;;;;8.52;3.90;;;;;;;;;;5092214;28;20035;-77
2023/10/23 13:14:14;;;;;;;10.20;4.28;;;;;;;;;;5088610;28;20061;-76
2023/10/23 13:16:40;;;;;;;7.53;3.22;;;;;;;;;;5096413;28;20938;-77
2023/10/23 13:19:06;;;;;;;11.38;3.92;;;;;;;;;;5096272;28;20434;-79
2023/10/23 13:21:32;;;;;;;11.40;3.80;;;;;;;;;;5094586;28;20039;-80
2023/10/23 13:23:57;;;;;;;11.40;4.80;;;;;;;;;;5096585;28;20119;-77
2023/10/23 13:26:23;;;;;;;10.57;3.80;;;;;;;;;;5097580;28;20023;-75
2023/10/23 13:28:48;;;;;;;12.55;6.25;;;;;;;;;;5083701;28;20100;-76
2023/10/23 13:31:13;;;;;;;11.10;5.13;;;;;;;;;;5089343;28;20106;-77
2023/10/23 13:33:39;;;;;;;13.40;5.40;;;;;;;;;;5094395;28;20050;-76
2023/10/23 13:36:05;;;;;;;11.88;5.75;;;;;;;;;;5095267;28;20051;-76
2023/10/23 13:38:31;;;;;;;9.20;3.75;;;;;;;;;;5094829;28;20038;-77
2023/10/23 13:40:57;;;;;;;8.57;3.28;;;;;;;;;;5098096;28;20046;-75
2023/10/23 13:43:24;;;;;;;9.63;3.83;;;;;;;;;;5097977;28;20032;-76
2023/10/23 13:45:50;;;;;;;8.93;3.90;;;;;;;;;;5084026;28;20020;-81
2023/10/23 13:48:15;;;;;;;7.13;3.85;;;;;;;;;;5097981;28;20019;-78
2023/10/23 13:50:41;;;;;;;9.82;3.70;;;;;;;;;;5094103;28;20731;-76
2023/10/23 13:53:06;;;;;;;8.45;3.63;;;;;;;;;;5090501;28;20031;-77
2023/10/23 13:55:31;;;;;;;11.48;3.90;;;;;;;;;;5099630;28;21372;-78
2023/10/23 13:57:57;;;;;;;11.13;4.07;;;;;;;;;;5099006;28;20118;-77
2023/10/23 14:00:22;;;;;;;9.95;4.10;;;;;;;;;;5100688;28;20033;-78
2023/10/23 14:02:48;;;;;;;8.65;4.72;;;;;;;;;;5101217;28;20024;-75
2023/10/23 14:05:13;;;;;;;7.60;2.67;;;;;;;;;;5099325;28;20094;-76
2023/10/23 14:07:39;;;;;;;8.13;2.88;;;;;;;;;;5100212;28;20027;-75
2023/10/23 14:10:05;;;;;;;10.55;3.47;;;;;;;;;;5101544;28;20027;-81
2023/10/23 14:12:30;;;;;;;7.93;2.97;;;;;;;;;;5102164;28;20022;-75
2023/10/23 14:14:55;;;;;;;7.93;2.58;;;;;;;;;;5095313;28;20555;-83
2023/10/23 14:17:21;;;;;;;6.38;2.42;;;;;;;;;;5083478;28;20042;-80